Time;durP1;ratioP1;P1;durP2;ratioP2;P2;SDS_P1;SDS_P2;PMS_P1;PMS_P2;Temp;Humidity;BMP_temperature;BMP_pressure;BME280_temperature;BME280_humidity;BME280_pressure;Samples;Min_cycle;Max_cycle;Signal;HPM_P1;HPM_P2
2021/12/05 00:19:32;;;;;;;9.30;4.32;;;;;;;-1.32;63.54;99319.06;5030640;28;20454;-56
2021/12/05 00:24:21;;;;;;;8.95;5.00;;;;;;;-1.56;63.11;99273.59;5031127;28;20390;-58
2021/12/05 00:26:53;;;;;;;10.50;4.47;;;;;;;-1.28;63.28;99318.00;5031812;28;20116;-58
2021/12/05 01:08:56;;;;;;;11.98;5.30;;;;;;;-1.41;63.36;99317.66;5031018;28;20072;-58
2021/12/05 01:16:52;;;;;;;9.68;5.25;;;;;;;-1.30;63.15;99302.31;5031086;28;20029;-60
2021/12/05 01:19:21;;;;;;;11.00;5.65;;;;;;;-1.25;62.75;99310.00;5033744;28;20537;-55
2021/12/05 01:21:50;;;;;;;10.05;5.70;;;;;;;-1.23;62.54;99304.69;5033861;28;20462;-57
2021/12/05 01:31:52;;;;;;;9.43;5.68;;;;;;;-1.18;63.34;99303.59;5033897;28;20045;-56
2021/12/05 01:52:47;;;;;;;12.50;6.80;;;;;;;-1.11;63.58;99301.56;5034175;28;20056;-57
2021/12/05 02:41:06;;;;;;;17.58;9.13;;;;;;;-0.94;64.12;99311.38;5052426;28;20381;-57
2021/12/05 02:43:25;;;;;;;16.30;9.10;;;;;;;-0.88;63.68;99310.28;5051845;28;20037;-57
2021/12/05 02:45:53;;;;;;;18.40;9.23;;;;;;;-0.88;64.18;99312.91;5051992;28;20029;-57
2021/12/05 02:48:21;;;;;;;17.70;9.00;;;;;;;-0.94;63.72;99302.66;5044046;28;20507;-56
2021/12/05 02:50:47;;;;;;;18.35;9.10;;;;;;;-0.90;64.83;99307.69;5032505;28;20030;-53
2021/12/05 02:53:17;;;;;;;17.80;9.43;;;;;;;-0.88;64.59;99299.75;5031916;28;20504;-58
2021/12/05 02:55:45;;;;;;;18.52;9.13;;;;;;;-1.11;64.66;99256.91;5031929;28;20029;-58
2021/12/05 02:58:25;;;;;;;17.15;9.57;;;;;;;-0.83;65.13;99297.78;5032449;28;20021;-56
2021/12/05 03:03:21;;;;;;;19.02;9.10;;;;;;;-0.74;64.69;99307.91;5031559;28;20034;-56
2021/12/05 03:05:54;;;;;;;19.02;9.43;;;;;;;-0.77;64.39;99297.53;5031761;28;20021;-56
2021/12/05 03:08:20;;;;;;;16.85;9.82;;;;;;;-0.83;65.12;99297.78;5032058;28;20038;-59
2021/12/05 03:10:47;;;;;;;20.25;9.45;;;;;;;-0.84;65.49;99296.06;5031778;28;20504;-59
2021/12/05 03:13:13;;;;;;;19.77;10.65;;;;;;;-0.85;65.10;99306.66;5032055;28;20112;-58
2021/12/05 03:15:39;;;;;;;21.70;9.75;;;;;;;-0.93;66.20;99302.56;5031805;28;20114;-57
2021/12/05 03:18:04;;;;;;;18.95;10.02;;;;;;;-0.87;66.32;99307.56;5031299;28;20076;-57
2021/12/05 03:20:30;;;;;;;19.73;10.32;;;;;;;-0.82;66.35;99304.75;5031618;28;20032;-56
2021/12/05 03:22:56;;;;;;;22.42;10.15;;;;;;;-0.90;66.22;99277.94;5032280;28;20553;-60
2021/12/05 03:25:22;;;;;;;22.70;10.20;;;;;;;-0.72;66.16;99299.97;5031636;28;20113;-58
2021/12/05 03:27:48;;;;;;;17.85;10.02;;;;;;;-0.74;65.77;99297.38;5031704;28;20362;-58
2021/12/05 03:30:19;;;;;;;22.50;10.20;;;;;;;-0.65;65.90;99305.81;5031153;28;20037;-57
2021/12/05 03:32:48;;;;;;;21.52;10.23;;;;;;;-0.66;65.54;99298.84;5032296;28;20037;-57
2021/12/05 03:35:13;;;;;;;18.80;9.77;;;;;;;-0.60;65.41;99303.84;5031737;28;20025;-56
2021/12/05 03:37:39;;;;;;;20.83;9.48;;;;;;;-0.62;65.88;99303.91;5030600;28;20029;-57
2021/12/05 03:40:08;;;;;;;23.08;9.82;;;;;;;-0.61;65.96;99308.22;5031328;28;20025;-56
2021/12/05 03:42:34;;;;;;;20.50;10.07;;;;;;;-0.59;66.00;99310.81;5031032;28;20216;-58
2021/12/05 03:45:02;;;;;;;22.77;10.45;;;;;;;-0.55;65.89;99306.28;5031036;28;20096;-58
2021/12/05 03:47:30;;;;;;;21.15;10.50;;;;;;;-0.56;65.92;99308.03;5029843;28;20030;-56
2021/12/05 03:49:56;;;;;;;17.38;9.75;;;;;;;-0.50;66.47;99306.94;5031375;28;20068;-59
2021/12/05 03:52:22;;;;;;;21.77;9.90;;;;;;;-0.51;65.92;99308.69;5031297;28;20085;-55
2021/12/05 03:54:48;;;;;;;18.67;10.35;;;;;;;-0.44;65.64;99325.06;5031875;28;20525;-57
2021/12/05 03:57:14;;;;;;;18.30;9.85;;;;;;;-0.46;65.94;99319.88;5030960;28;20036;-56
2021/12/05 03:59:40;;;;;;;22.70;10.70;;;;;;;-0.46;66.31;99326.91;5030852;28;20033;-58
2021/12/05 04:02:07;;;;;;;23.90;10.68;;;;;;;-0.45;66.14;99307.56;5031034;28;20041;-57
2021/12/05 04:04:33;;;;;;;20.17;9.88;;;;;;;-0.41;65.78;99317.03;5032277;28;20056;-58
2021/12/05 04:07:00;;;;;;;21.67;11.02;;;;;;;-0.41;66.32;99318.84;5031459;28;20079;-58
2021/12/05 04:09:26;;;;;;;22.08;11.57;;;;;;;-0.40;66.36;99325.81;5031140;28;20484;-56
2021/12/05 04:11:57;;;;;;;19.60;10.05;;;;;;;-0.34;66.63;99329.03;5030830;28;20029;-58
2021/12/05 04:14:26;;;;;;;18.27;10.43;;;;;;;-0.29;66.34;99326.16;5032677;28;20064;-54
2021/12/05 04:16:53;;;;;;;18.02;10.25;;;;;;;-0.27;66.33;99326.94;5030869;28;20036;-54
2021/12/05 04:19:18;;;;;;;20.23;10.52;;;;;;;-0.52;66.08;99285.94;5030655;28;20049;-59
2021/12/05 04:21:44;;;;;;;23.45;11.15;;;;;;;-0.26;66.45;99328.66;5030341;28;20030;-59
2021/12/05 04:24:12;;;;;;;22.67;9.85;;;;;;;-0.22;66.40;99330.25;5031377;28;20029;-56
2021/12/05 04:26:38;;;;;;;18.63;10.60;;;;;;;-0.21;66.49;99331.97;5031775;28;20072;-59
2021/12/05 04:29:04;;;;;;;20.02;9.93;;;;;;;-0.18;66.54;99326.56;5030504;28;20095;-60
2021/12/05 04:31:30;;;;;;;20.90;10.93;;;;;;;-0.13;66.63;99328.97;5029159;28;20052;-56
2021/12/05 04:33:56;;;;;;;18.05;11.25;;;;;;;-0.10;66.47;99323.59;5031214;28;20038;-59
2021/12/05 04:36:22;;;;;;;20.10;10.48;;;;;;;-0.08;66.74;99329.66;5031888;28;20026;-58
2021/12/05 04:38:48;;;;;;;17.77;9.98;;;;;;;-0.05;66.05;99320.75;5030268;28;20032;-60
2021/12/05 04:41:14;;;;;;;17.88;10.27;;;;;;;-0.03;66.05;99327.66;5030319;28;20029;-59
2021/12/05 04:43:40;;;;;;;18.27;10.38;;;;;;;-0.02;66.26;99334.63;5030938;28;20377;-61
2021/12/05 04:46:15;;;;;;;21.05;11.02;;;;;;;0.00;66.36;99337.22;5031989;28;20025;-57
2021/12/05 04:48:43;;;;;;;19.30;10.75;;;;;;;0.01;66.33;99331.03;5030082;28;20087;-58
2021/12/05 04:51:10;;;;;;;20.13;10.38;;;;;;;0.02;65.90;99326.59;5033973;28;20041;-58
2021/12/05 04:53:35;;;;;;;19.50;11.13;;;;;;;0.03;66.01;99334.44;5034758;28;20026;-58
2021/12/05 04:56:02;;;;;;;22.52;11.25;;;;;;;0.00;66.18;99331.94;5034405;28;20037;-58
2021/12/05 04:58:28;;;;;;;18.02;9.73;;;;;;;0.09;66.26;99339.41;5033980;28;20037;-58
2021/12/05 05:00:57;;;;;;;19.52;10.95;;;;;;;0.14;65.92;99342.69;5034058;28;20033;-57
2021/12/05 05:03:24;;;;;;;17.23;10.40;;;;;;;0.16;65.70;99345.25;5034394;28;20029;-57
2021/12/05 05:05:53;;;;;;;19.73;10.27;;;;;;;0.16;66.03;99347.88;5034016;28;20029;-60
2021/12/05 05:08:20;;;;;;;22.02;11.55;;;;;;;0.14;65.84;99347.09;5034664;28;20053;-57
2021/12/05 05:10:46;;;;;;;21.70;10.35;;;;;;;0.14;65.20;99345.31;5033862;28;20115;-56
2021/12/05 05:13:11;;;;;;;19.58;10.48;;;;;;;0.10;65.43;99351.66;5034149;28;20029;-59
2021/12/05 05:15:37;;;;;;;18.85;10.93;;;;;;;0.07;65.59;99346.53;5034055;28;20036;-54
2021/12/05 05:18:04;;;;;;;21.73;10.93;;;;;;;0.03;65.29;99344.97;5034656;28;20124;-56
2021/12/05 05:20:45;;;;;;;20.15;11.02;;;;;;;0.02;65.70;99366.94;5033844;28;20060;-55
2021/12/05 05:49:25;;;;;;;19.25;10.80;;;;;;;-0.15;65.84;99379.06;5034247;28;20048;-58
2021/12/05 05:51:51;;;;;;;20.75;10.93;;;;;;;-0.10;66.05;99385.88;5033342;28;20041;-57
2021/12/05 05:54:18;;;;;;;20.85;10.85;;;;;;;-0.12;65.64;99385.97;5033061;28;20116;-57
2021/12/05 05:56:45;;;;;;;19.90;11.73;;;;;;;-0.15;66.12;99389.59;5032907;28;20188;-56
2021/12/05 06:03:20;;;;;;;20.33;11.98;;;;;;;-0.13;66.05;99391.28;5032425;28;20073;-59
2021/12/05 06:04:48;;;;;;;24.42;12.25;;;;;;;-0.16;65.74;99385.25;5032630;28;20108;-58
2021/12/05 06:07:15;;;;;;;21.65;11.88;;;;;;;-0.16;66.20;99393.13;5032707;28;20199;-58
2021/12/05 06:09:41;;;;;;;26.48;11.80;;;;;;;-0.16;66.22;99387.88;5032112;28;20029;-58
2021/12/05 06:12:07;;;;;;;20.80;11.57;;;;;;;-0.11;65.79;99395.56;5033967;28;20501;-57
2021/12/05 06:14:32;;;;;;;21.50;11.35;;;;;;;-0.19;65.66;99380.13;5031736;28;20037;-57
2021/12/05 06:16:58;;;;;;;22.67;12.23;;;;;;;-0.10;66.28;99396.41;5032637;28;20029;-58
2021/12/05 06:19:23;;;;;;;22.85;12.40;;;;;;;-0.07;65.69;99394.50;5033300;28;20052;-56
2021/12/05 06:21:49;;;;;;;23.50;12.60;;;;;;;-0.03;65.63;99405.75;5033998;28;20029;-54
2021/12/05 06:24:15;;;;;;;24.65;12.93;;;;;;;-0.07;65.26;99398.91;5052127;28;20039;-53
2021/12/05 06:26:42;;;;;;;22.75;12.18;;;;;;;-0.13;65.67;99391.28;5052672;28;20108;-56
2021/12/05 06:29:14;;;;;;;21.52;11.65;;;;;;;-0.07;65.58;99398.91;5041480;28;20037;-53
2021/12/05 06:40:19;;;;;;;23.17;12.10;;;;;;;-0.11;65.56;99400.84;5043320;28;20461;-50
2021/12/05 06:43:01;;;;;;;21.77;11.10;;;;;;;-0.22;65.72;99387.28;5041124;28;20431;-55
2021/12/05 06:48:10;;;;;;;20.48;12.25;;;;;;;-0.06;65.31;99434.84;5047937;28;20021;-52
2021/12/05 06:50:36;;;;;;;21.88;11.82;;;;;;;-0.06;65.23;99426.94;5037853;28;20095;-55
2021/12/05 06:53:05;;;;;;;18.10;11.02;;;;;;;-0.08;65.59;99436.69;5041423;28;20509;-57
2021/12/05 06:55:31;;;;;;;18.70;11.35;;;;;;;-0.10;65.84;99433.25;5041249;28;20082;-56
2021/12/05 06:57:57;;;;;;;21.90;11.13;;;;;;;-0.11;65.73;99444.69;5042782;28;20025;-53
2021/12/05 07:00:25;;;;;;;24.33;12.13;;;;;;;-0.11;65.70;99437.69;5040901;28;20018;-55
2021/12/05 07:02:51;;;;;;;20.38;12.00;;;;;;;-0.07;65.63;99444.53;5041005;28;20075;-57
2021/12/05 07:05:38;;;;;;;20.98;12.18;;;;;;;-0.07;65.76;99446.28;5040300;28;20025;-55
2021/12/05 07:08:03;;;;;;;20.83;11.52;;;;;;;0.01;65.76;99446.81;5039646;28;20033;-55
2021/12/05 07:10:30;;;;;;;21.50;12.60;;;;;;;0.00;65.95;99437.22;5036698;28;20043;-55
2021/12/05 07:16:00;;;;;;;21.05;11.80;;;;;;;0.06;65.48;99454.50;5040558;28;20095;-56
2021/12/05 07:26:29;;;;;;;23.03;11.83;;;;;;;0.07;65.21;99441.28;5052125;28;20598;-53
2021/12/05 07:42:41;;;;;;;19.17;10.35;;;;;;;0.09;65.30;99455.22;5033743;28;20029;-55
2021/12/05 07:45:09;;;;;;;22.73;11.10;;;;;;;0.09;65.34;99471.03;5031747;28;20039;-57
2021/12/05 07:47:38;;;;;;;21.95;11.18;;;;;;;0.06;65.72;99465.03;5032000;28;20463;-53
2021/12/05 07:50:08;;;;;;;22.25;11.10;;;;;;;-0.01;65.75;99453.91;5031024;28;20060;-53
2021/12/05 07:52:38;;;;;;;22.40;11.57;;;;;;;0.05;65.85;99472.09;5033851;28;20029;-56
2021/12/05 07:55:16;;;;;;;20.05;11.25;;;;;;;0.02;66.25;99461.69;5031200;28;20116;-55
2021/12/05 08:00:37;;;;;;;21.98;11.10;;;;;;;0.21;65.29;99466.13;5029296;28;20427;-57
2021/12/05 08:16:48;;;;;;;20.70;11.45;;;;;;;0.61;64.58;99471.44;5048622;28;20056;-56
2021/12/05 08:19:14;;;;;;;17.20;9.77;;;;;;;0.62;64.55;99471.34;5046748;28;20029;-58
2021/12/05 08:21:41;;;;;;;22.48;11.40;;;;;;;0.73;64.16;99475.31;5049180;28;20472;-60
2021/12/05 08:24:07;;;;;;;20.00;11.27;;;;;;;0.71;63.74;99455.13;5049800;28;20033;-57
2021/12/05 08:26:34;;;;;;;17.88;10.88;;;;;;;0.76;63.86;99461.97;5054076;28;20082;-56
2021/12/05 08:29:11;;;;;;;20.60;10.98;;;;;;;0.84;64.17;99480.91;5054675;28;20029;-57
2021/12/05 08:32:28;;;;;;;19.48;10.70;;;;;;;0.90;64.09;99478.00;5053178;28;20048;-59
2021/12/05 09:31:00;;;;;;;22.02;11.95;;;;;;;1.41;63.00;99480.00;5033402;28;20045;-61
2021/12/05 09:39:37;;;;;;;25.60;11.65;;;;;;;1.46;63.26;99490.34;5053144;28;20063;-55
2021/12/05 10:17:28;;;;;;;23.70;11.35;;;;;;;1.62;63.24;99506.28;5052441;28;20495;-55
2021/12/05 10:34:44;;;;;;;20.60;11.07;;;;;;;1.48;63.57;99457.72;5032549;28;20045;-52
2021/12/05 10:37:19;;;;;;;18.35;11.43;;;;;;;1.65;63.47;99493.81;5034329;28;20037;-57
2021/12/05 10:39:45;;;;;;;21.95;11.43;;;;;;;1.33;63.45;99448.75;5034786;28;20037;-54
2021/12/05 10:42:41;;;;;;;22.05;11.13;;;;;;;1.70;63.75;99509.44;5032523;28;20033;-55
2021/12/05 10:45:27;;;;;;;24.48;12.18;;;;;;;1.39;63.41;99463.41;5031608;28;20640;-57
2021/12/05 10:47:56;;;;;;;17.58;11.07;;;;;;;1.63;63.55;99508.88;5031240;28;20446;-56
2021/12/05 10:50:34;;;;;;;21.98;12.10;;;;;;;1.64;63.70;99509.72;5032088;28;20069;-52
2021/12/05 10:53:29;;;;;;;20.63;11.48;;;;;;;1.69;64.04;99515.66;5031950;28;20458;-54
2021/12/05 10:56:03;;;;;;;21.10;12.07;;;;;;;1.76;63.90;99513.53;5031991;28;20041;-54
2021/12/05 10:58:49;;;;;;;17.70;10.93;;;;;;;1.88;63.70;99512.94;5035179;28;20418;-50
2021/12/05 11:01:15;;;;;;;19.42;12.05;;;;;;;1.89;63.18;99513.78;5039948;28;20367;-55
2021/12/05 11:03:42;;;;;;;21.45;11.68;;;;;;;1.88;63.11;99520.84;5050634;28;20036;-54
2021/12/05 11:06:35;;;;;;;17.58;11.43;;;;;;;1.92;63.37;99518.91;5051388;28;20098;-58
2021/12/05 11:09:09;;;;;;;24.85;12.55;;;;;;;1.84;63.31;99519.31;5051460;28;20377;-56
2021/12/05 11:11:36;;;;;;;20.98;11.30;;;;;;;1.78;63.14;99516.94;5051366;28;20492;-55
2021/12/05 11:14:06;;;;;;;20.92;12.02;;;;;;;1.82;63.36;99510.63;5048068;28;20069;-56
2021/12/05 11:16:49;;;;;;;20.42;12.20;;;;;;;1.92;63.24;99517.13;5039655;28;20028;-53
2021/12/05 11:19:16;;;;;;;23.15;11.98;;;;;;;1.85;62.49;99518.38;5051697;28;20028;-56
2021/12/05 11:21:51;;;;;;;23.20;11.75;;;;;;;1.84;62.99;99506.94;5051510;28;20040;-51
2021/12/05 11:24:21;;;;;;;22.48;11.63;;;;;;;1.94;63.18;99520.56;5051414;28;20028;-57
2021/12/05 11:27:13;;;;;;;24.23;11.80;;;;;;;2.00;63.18;99524.69;5048189;28;20432;-53
2021/12/05 11:29:44;;;;;;;18.67;10.27;;;;;;;1.67;62.01;99485.81;5031157;28;20489;-55
2021/12/05 11:32:14;;;;;;;20.75;11.55;;;;;;;1.84;62.55;99532.50;5031658;28;20059;-56
2021/12/05 11:34:40;;;;;;;19.33;10.75;;;;;;;1.75;62.44;99519.75;5031194;28;20160;-54
2021/12/05 11:37:06;;;;;;;20.20;11.68;;;;;;;1.76;62.57;99534.66;5031539;28;20450;-54
2021/12/05 11:39:31;;;;;;;21.80;11.68;;;;;;;1.70;62.88;99531.38;5032420;28;20481;-55
2021/12/05 11:41:57;;;;;;;21.13;12.00;;;;;;;1.69;62.46;99531.47;5030956;28;20036;-54
2021/12/05 11:44:24;;;;;;;19.05;11.52;;;;;;;1.65;62.94;99525.47;5030765;28;20041;-58
2021/12/05 11:46:51;;;;;;;20.52;10.95;;;;;;;1.63;63.15;99524.72;5031525;28;20025;-55
2021/12/05 11:49:24;;;;;;;17.77;10.57;;;;;;;1.58;62.14;99522.28;5031418;28;20116;-54
2021/12/05 11:51:58;;;;;;;19.52;10.93;;;;;;;1.65;62.45;99521.97;5031013;28;20025;-56
2021/12/05 11:54:29;;;;;;;17.65;10.65;;;;;;;1.62;62.37;99530.03;5031467;28;20064;-57
2021/12/05 11:57:00;;;;;;;16.70;9.90;;;;;;;1.57;61.73;99533.75;5031270;28;20037;-53
2021/12/05 11:59:39;;;;;;;17.08;10.00;;;;;;;1.50;61.90;99529.72;5035170;28;20428;-52
2021/12/05 12:02:14;;;;;;;16.45;10.32;;;;;;;1.46;62.21;99533.44;5041706;28;20043;-53
2021/12/05 12:04:50;;;;;;;15.57;9.90;;;;;;;1.44;62.74;99540.53;5047236;28;20120;-54
2021/12/05 12:07:34;;;;;;;16.95;10.23;;;;;;;1.39;62.56;99543.41;5028956;28;20049;-56
2021/12/05 12:10:15;;;;;;;20.10;10.40;;;;;;;1.35;62.71;99541.84;5028466;28;20079;-55
2021/12/05 12:13:00;;;;;;;15.57;9.43;;;;;;;1.29;62.62;99548.28;5028227;28;20501;-57
2021/12/05 12:15:28;;;;;;;17.77;10.50;;;;;;;1.25;61.98;99549.34;5028524;28;20045;-51
2021/12/05 12:18:04;;;;;;;18.35;10.52;;;;;;;1.22;62.33;99545.97;5029279;28;20091;-55
2021/12/05 12:20:33;;;;;;;17.00;10.25;;;;;;;1.23;62.11;99545.94;5029083;28;20489;-58
2021/12/05 12:23:00;;;;;;;15.77;9.10;;;;;;;1.31;61.50;99549.97;5049418;28;20044;-58
2021/12/05 12:25:30;;;;;;;20.42;10.02;;;;;;;1.32;61.79;99556.97;5050745;28;20029;-55
2021/12/05 12:27:55;;;;;;;16.30;10.13;;;;;;;1.29;61.70;99552.66;5050237;28;20060;-57
2021/12/05 12:30:31;;;;;;;15.25;8.88;;;;;;;1.35;61.88;99551.53;5045256;28;20470;-59
2021/12/05 12:33:08;;;;;;;15.45;9.57;;;;;;;1.33;61.90;99551.63;5029440;28;20080;-58
2021/12/05 12:35:34;;;;;;;15.88;9.32;;;;;;;1.32;62.24;99551.69;5030767;28;20367;-57
2021/12/05 12:38:08;;;;;;;19.08;11.25;;;;;;;1.38;62.37;99554.03;5030689;28;20029;-55
2021/12/05 12:40:52;;;;;;;18.70;10.68;;;;;;;1.42;62.91;99558.22;5029834;28;20035;-56
2021/12/05 12:43:53;;;;;;;15.65;9.88;;;;;;;1.47;62.50;99555.38;5030877;28;20036;-57
2021/12/05 12:46:39;;;;;;;21.00;10.32;;;;;;;1.45;62.68;99552.84;5028525;28;20030;-58
2021/12/05 12:49:14;;;;;;;19.75;10.85;;;;;;;1.40;62.95;99546.91;5027126;28;20041;-54
2021/12/05 12:51:57;;;;;;;20.38;11.15;;;;;;;1.41;63.25;99557.38;5027130;28;20488;-60
2021/12/05 12:54:34;;;;;;;17.98;10.07;;;;;;;1.44;63.00;99556.38;5027341;28;20025;-52
2021/12/05 12:57:12;;;;;;;17.17;10.02;;;;;;;1.41;63.41;99565.31;5025410;28;20042;-55
2021/12/05 13:00:01;;;;;;;20.48;10.18;;;;;;;1.39;63.20;99563.66;5028548;28;20105;-57
2021/12/05 13:02:48;;;;;;;17.35;10.57;;;;;;;1.36;63.07;99556.75;5044270;28;20025;-54
2021/12/05 13:11:24;;;;;;;21.17;10.75;;;;;;;1.25;64.27;99536.16;5032015;28;20033;-57
2021/12/05 13:14:04;;;;;;;22.70;11.70;;;;;;;1.38;64.18;99572.50;5025535;28;20041;-55
2021/12/05 13:16:34;;;;;;;23.52;12.35;;;;;;;1.29;64.24;99581.69;5033746;28;20108;-55
2021/12/05 13:19:09;;;;;;;21.42;11.32;;;;;;;1.35;64.48;99575.28;5034006;28;20025;-57
2021/12/05 13:21:40;;;;;;;17.35;10.90;;;;;;;1.31;64.22;99577.19;5047033;28;20033;-60
2021/12/05 13:24:42;;;;;;;22.42;12.63;;;;;;;1.14;64.46;99549.84;5053687;28;20464;-60
2021/12/05 13:27:23;;;;;;;21.73;12.13;;;;;;;1.26;64.69;99582.69;5054203;28;20438;-55
2021/12/05 13:29:53;;;;;;;22.25;11.07;;;;;;;1.24;64.58;99581.06;5053617;28;20098;-57
2021/12/05 13:32:25;;;;;;;23.02;11.55;;;;;;;1.17;65.04;99580.47;5053127;28;20052;-57
2021/12/05 13:34:54;;;;;;;21.70;12.00;;;;;;;1.13;64.87;99579.78;5050341;28;20111;-55
2021/12/05 13:37:29;;;;;;;22.25;11.82;;;;;;;1.16;65.12;99588.47;5053521;28;20110;-54
2021/12/05 13:40:08;;;;;;;19.92;11.32;;;;;;;1.14;65.28;99594.66;5053973;28;20032;-55
2021/12/05 13:42:34;;;;;;;20.50;11.10;;;;;;;1.12;65.26;99598.28;5054011;28;20041;-56
2021/12/05 13:44:59;;;;;;;19.63;10.93;;;;;;;1.11;65.29;99591.31;5050928;28;20043;-55
2021/12/05 13:47:39;;;;;;;19.17;11.52;;;;;;;1.09;65.22;99590.53;5033706;28;20065;-55
2021/12/05 13:50:29;;;;;;;19.92;11.57;;;;;;;1.12;65.50;99596.53;5033848;28;20470;-53
2021/12/05 13:53:07;;;;;;;21.95;11.95;;;;;;;1.11;65.34;99589.53;5040335;28;20116;-55
2021/12/05 13:55:49;;;;;;;21.35;11.73;;;;;;;1.07;65.50;99597.66;5043802;28;20040;-53
2021/12/05 13:58:34;;;;;;;22.88;12.27;;;;;;;1.12;65.57;99600.91;5047003;28;20029;-58
2021/12/05 14:01:18;;;;;;;21.02;12.35;;;;;;;1.14;65.45;99605.22;5035713;28;20455;-56
2021/12/05 14:04:03;;;;;;;23.90;12.77;;;;;;;1.14;65.47;99610.50;5040975;28;20032;-53
2021/12/05 14:06:37;;;;;;;22.55;12.65;;;;;;;1.12;65.09;99604.44;5043005;28;20091;-56
2021/12/05 14:09:26;;;;;;;22.65;12.90;;;;;;;1.11;65.66;99597.44;5032978;28;20033;-57
2021/12/05 14:11:56;;;;;;;22.83;12.57;;;;;;;1.10;64.92;99608.91;5050602;28;20037;-55
2021/12/05 14:14:28;;;;;;;22.05;11.38;;;;;;;1.09;65.49;99617.75;5051410;28;20036;-54
2021/12/05 14:16:56;;;;;;;19.42;11.80;;;;;;;1.05;64.71;99608.25;5038839;28;20021;-58
2021/12/05 14:19:27;;;;;;;21.17;11.60;;;;;;;1.06;65.47;99623.13;5031763;28;20037;-55
2021/12/05 14:21:56;;;;;;;16.38;10.70;;;;;;;1.00;65.16;99599.69;5031618;28;20373;-59
2021/12/05 14:24:24;;;;;;;18.10;11.55;;;;;;;1.04;65.29;99621.50;5032867;28;20034;-59
2021/12/05 14:26:53;;;;;;;17.75;11.07;;;;;;;1.06;65.14;99609.13;5032641;28;20088;-58
2021/12/05 14:29:23;;;;;;;19.95;11.18;;;;;;;1.06;64.72;99611.75;5032889;28;20041;-55
2021/12/05 14:31:55;;;;;;;18.40;10.82;;;;;;;1.04;65.12;99621.50;5034082;28;20059;-56
2021/12/05 14:34:22;;;;;;;18.67;11.35;;;;;;;0.99;65.30;99617.31;5045688;28;20041;-50
2021/12/05 14:36:53;;;;;;;19.77;10.60;;;;;;;1.10;64.94;99631.78;5037944;28;20034;-57
2021/12/05 14:39:26;;;;;;;19.67;10.65;;;;;;;1.13;65.06;99623.72;5032468;28;20136;-56
2021/12/05 14:41:58;;;;;;;18.67;10.70;;;;;;;1.13;64.98;99632.50;5032857;28;20053;-55
2021/12/05 14:44:24;;;;;;;19.77;12.18;;;;;;;1.06;65.17;99627.56;5032493;28;20043;-56
2021/12/05 14:46:49;;;;;;;20.27;11.35;;;;;;;1.10;65.25;99635.28;5031828;28;20085;-53
2021/12/05 14:49:15;;;;;;;20.48;11.80;;;;;;;1.07;65.61;99629.28;5032762;28;20091;-53
2021/12/05 14:51:43;;;;;;;22.88;11.50;;;;;;;1.12;65.40;99638.72;5030894;28;20550;-52
2021/12/05 14:54:09;;;;;;;20.95;11.13;;;;;;;1.12;65.40;99643.13;5032118;28;20028;-55
2021/12/05 14:56:38;;;;;;;18.48;11.23;;;;;;;0.91;65.48;99598.31;5032073;28;20036;-53
2021/12/05 14:59:10;;;;;;;16.55;10.35;;;;;;;1.15;65.42;99637.69;5032457;28;20474;-55
2021/12/05 15:01:47;;;;;;;18.65;10.23;;;;;;;1.19;64.98;99636.63;5033131;28;20025;-57
2021/12/05 15:04:18;;;;;;;18.30;11.05;;;;;;;1.13;64.94;99645.69;5032033;28;20401;-52
2021/12/05 15:06:44;;;;;;;18.20;10.55;;;;;;;1.07;64.80;99645.09;5032213;28;20033;-56
2021/12/05 15:09:21;;;;;;;19.77;10.88;;;;;;;1.15;64.84;99656.16;5032488;28;20021;-60
2021/12/05 15:12:00;;;;;;;21.00;11.60;;;;;;;1.14;64.87;99649.16;5032019;28;20523;-55
2021/12/05 15:14:28;;;;;;;19.40;11.68;;;;;;;1.10;65.02;99663.44;5031801;28;20553;-57
2021/12/05 15:17:00;;;;;;;20.55;12.77;;;;;;;1.06;64.74;99646.03;5031514;28;20025;-54
2021/12/05 15:19:25;;;;;;;19.95;12.48;;;;;;;1.05;64.98;99649.59;5031807;28;20374;-55
2021/12/05 15:21:51;;;;;;;22.60;13.35;;;;;;;1.06;65.45;99657.41;5031893;28;20032;-55
2021/12/05 15:24:19;;;;;;;18.83;11.35;;;;;;;1.04;64.69;99653.16;5031377;28;20359;-58
2021/12/05 15:26:45;;;;;;;21.92;11.18;;;;;;;1.04;64.86;99661.06;5032704;28;20029;-55
2021/12/05 15:29:14;;;;;;;19.52;12.45;;;;;;;1.02;65.11;99657.66;5031912;28;20043;-57
2021/12/05 15:31:42;;;;;;;23.73;11.82;;;;;;;1.06;65.00;99657.41;5030054;28;20497;-58
2021/12/05 15:34:27;;;;;;;20.10;12.05;;;;;;;1.07;64.94;99659.13;5030779;28;20461;-56
2021/12/05 15:36:54;;;;;;;21.38;12.90;;;;;;;1.04;65.23;99658.44;5031438;28;20397;-56
2021/12/05 15:39:23;;;;;;;20.08;12.23;;;;;;;1.07;65.21;99663.56;5032873;28;20097;-54
2021/12/05 15:41:55;;;;;;;21.55;12.82;;;;;;;1.06;64.86;99654.78;5031428;28;20137;-55
2021/12/05 15:44:30;;;;;;;25.50;12.77;;;;;;;1.07;64.55;99659.13;5031461;28;20132;-54
2021/12/05 15:46:59;;;;;;;;;;;;;;;1.29;64.86;99661.69;5032008;28;20508;-57
2021/12/05 15:49:28;;;;;;;21.90;12.35;;;;;;;1.18;64.25;99671.84;5030172;28;19924;-57
2021/12/05 15:52:03;;;;;;;22.00;12.77;;;;;;;1.17;64.61;99670.13;5032186;28;20064;-52
2021/12/05 15:54:28;;;;;;;21.90;12.60;;;;;;;1.08;64.90;99665.28;5031662;28;20026;-53
2021/12/05 15:57:08;;;;;;;20.95;11.90;;;;;;;1.12;64.95;99672.13;5031661;28;20374;-54
2021/12/05 15:59:39;;;;;;;23.33;13.05;;;;;;;1.08;64.98;99670.53;5031330;28;20033;-53
2021/12/05 16:02:10;;;;;;;23.23;13.05;;;;;;;1.09;64.97;99673.13;5030772;28;20056;-56
2021/12/05 16:04:36;;;;;;;22.20;12.63;;;;;;;1.08;64.87;99674.03;5032122;28;20396;-55
2021/12/05 16:07:03;;;;;;;24.70;13.43;;;;;;;0.99;65.01;99667.41;5031356;28;20040;-55
2021/12/05 16:09:29;;;;;;;25.58;13.63;;;;;;;1.08;65.50;99673.19;5030794;28;20040;-55
2021/12/05 16:12:16;;;;;;;23.42;14.00;;;;;;;1.14;65.38;99676.41;5030739;28;20522;-57
2021/12/05 16:14:49;;;;;;;27.00;14.85;;;;;;;1.12;65.05;99685.31;5030878;28;20033;-53
2021/12/05 16:17:28;;;;;;;28.17;14.93;;;;;;;1.11;65.38;99683.59;5032214;28;20100;-52
2021/12/05 16:20:06;;;;;;;23.33;14.48;;;;;;;1.11;65.31;99680.97;5030790;28;20126;-57
2021/12/05 16:22:32;;;;;;;25.70;14.75;;;;;;;1.05;65.85;99686.50;5030771;28;20436;-53
2021/12/05 16:24:57;;;;;;;29.48;15.48;;;;;;;1.03;65.43;99678.66;5030761;28;20494;-56
2021/12/05 16:27:23;;;;;;;27.58;14.20;;;;;;;1.07;65.25;99687.28;5029703;28;20492;-55
2021/12/05 16:29:49;;;;;;;25.20;14.55;;;;;;;1.09;65.56;99683.69;5030261;28;20079;-52
2021/12/05 16:32:14;;;;;;;31.02;16.17;;;;;;;1.05;65.14;99671.53;5029309;28;20045;-53
2021/12/05 16:34:46;;;;;;;25.42;13.60;;;;;;;1.05;64.60;99678.59;5029427;28;20033;-52
2021/12/05 16:37:12;;;;;;;26.83;14.38;;;;;;;1.00;65.03;99684.94;5030706;28;20444;-54
2021/12/05 16:39:44;;;;;;;22.90;13.43;;;;;;;1.00;65.47;99692.84;5031234;28;20485;-57
2021/12/05 16:42:20;;;;;;;25.88;14.13;;;;;;;1.04;65.45;99706.72;5045847;28;20584;-55
2021/12/05 16:44:50;;;;;;;;;;;;;;;1.22;65.21;99697.19;5049203;28;20064;-57
2021/12/05 16:47:19;;;;;;;21.98;13.48;;;;;;;1.09;64.95;99711.81;5052466;28;19917;-51
2021/12/05 16:49:47;;;;;;;26.08;13.23;;;;;;;1.00;64.99;99716.56;5052381;28;20029;-54
2021/12/05 16:52:20;;;;;;;26.60;14.40;;;;;;;1.00;65.14;99724.47;5052363;28;20033;-52
2021/12/05 16:54:57;;;;;;;29.98;15.13;;;;;;;0.99;65.10;99722.75;5049786;28;20119;-55
2021/12/05 16:57:29;;;;;;;25.40;14.60;;;;;;;0.93;65.13;99728.28;5053055;28;20133;-55
2021/12/05 16:59:57;;;;;;;30.10;15.45;;;;;;;0.71;65.19;99697.53;5053011;28;20466;-55
2021/12/05 17:02:25;;;;;;;26.88;15.55;;;;;;;0.92;65.29;99728.34;5054763;28;20116;-57
2021/12/05 17:04:59;;;;;;;25.10;14.82;;;;;;;0.95;65.48;99730.84;5054812;28;20033;-57
2021/12/05 17:07:55;;;;;;;31.27;15.32;;;;;;;0.98;65.36;99744.78;5052975;28;20876;-57
2021/12/05 17:10:20;;;;;;;27.90;15.68;;;;;;;0.94;65.18;99735.25;5054699;28;20485;-57
2021/12/05 17:12:49;;;;;;;26.85;15.40;;;;;;;0.91;65.74;99732.75;5054601;28;20170;-54
2021/12/05 17:15:22;;;;;;;29.70;15.93;;;;;;;0.90;65.58;99732.84;5055080;28;20201;-55
2021/12/05 17:17:49;;;;;;;28.85;16.27;;;;;;;0.89;65.36;99724.06;5054133;28;20477;-54
2021/12/05 17:20:24;;;;;;;29.05;15.88;;;;;;;0.90;65.49;99730.19;5051135;28;20078;-55
2021/12/05 17:23:00;;;;;;;28.23;16.17;;;;;;;0.92;65.80;99739.75;5054128;28;20036;-55